sensor_id;sensor_type;location;lat;lon;timestamp;P1;durP1;ratioP1;P2;durP2;ratioP2
819;SDS011;392;48.838;2.322;2022-12-11T00:00:37;26.65;;;20.42;;
819;SDS011;392;48.838;2.322;2022-12-11T00:03:06;27.67;;;20.88;;
819;SDS011;392;48.838;2.322;2022-12-11T00:05:33;28.40;;;22.27;;
819;SDS011;392;48.838;2.322;2022-12-11T00:08:05;27.23;;;19.60;;
819;SDS011;392;48.838;2.322;2022-12-11T00:10:33;25.73;;;21.10;;
819;SDS011;392;48.838;2.322;2022-12-11T00:13:01;21.23;;;17.77;;
819;SDS011;392;48.838;2.322;2022-12-11T00:15:30;21.52;;;17.02;;
819;SDS011;392;48.838;2.322;2022-12-11T00:17:57;19.33;;;15.52;;
819;SDS011;392;48.838;2.322;2022-12-11T00:20:26;19.00;;;15.75;;
819;SDS011;392;48.838;2.322;2022-12-11T00:22:54;43.03;;;34.20;;
819;SDS011;392;48.838;2.322;2022-12-11T00:25:23;19.27;;;14.73;;
819;SDS011;392;48.838;2.322;2022-12-11T00:27:50;36.70;;;30.63;;
819;SDS011;392;48.838;2.322;2022-12-11T00:30:19;20.27;;;15.73;;
819;SDS011;392;48.838;2.322;2022-12-11T00:32:46;19.50;;;16.48;;
819;SDS011;392;48.838;2.322;2022-12-11T00:35:14;29.35;;;22.60;;
819;SDS011;392;48.838;2.322;2022-12-11T00:37:42;27.10;;;20.77;;
819;SDS011;392;48.838;2.322;2022-12-11T00:40:09;37.28;;;33.58;;
819;SDS011;392;48.838;2.322;2022-12-11T00:42:38;21.35;;;17.10;;
819;SDS011;392;48.838;2.322;2022-12-11T00:45:06;23.27;;;18.30;;
819;SDS011;392;48.838;2.322;2022-12-11T00:47:35;28.25;;;23.83;;
819;SDS011;392;48.838;2.322;2022-12-11T00:50:04;20.83;;;16.48;;
819;SDS011;392;48.838;2.322;2022-12-11T00:52:34;24.58;;;18.52;;
819;SDS011;392;48.838;2.322;2022-12-11T00:55:02;30.63;;;23.42;;
819;SDS011;392;48.838;2.322;2022-12-11T00:57:30;21.52;;;16.35;;
819;SDS011;392;48.838;2.322;2022-12-11T01:00:00;20.10;;;15.73;;
819;SDS011;392;48.838;2.322;2022-12-11T01:02:28;20.92;;;16.25;;
819;SDS011;392;48.838;2.322;2022-12-11T01:04:55;21.00;;;16.98;;
819;SDS011;392;48.838;2.322;2022-12-11T01:07:23;20.83;;;16.60;;
819;SDS011;392;48.838;2.322;2022-12-11T01:09:51;19.67;;;16.00;;
819;SDS011;392;48.838;2.322;2022-12-11T01:12:38;20.42;;;16.52;;
819;SDS011;392;48.838;2.322;2022-12-11T01:15:08;21.45;;;16.65;;
819;SDS011;392;48.838;2.322;2022-12-11T01:17:37;18.83;;;15.23;;
819;SDS011;392;48.838;2.322;2022-12-11T01:20:05;17.90;;;14.35;;
819;SDS011;392;48.838;2.322;2022-12-11T01:22:33;17.77;;;13.60;;
819;SDS011;392;48.838;2.322;2022-12-11T01:25:02;18.95;;;14.32;;
819;SDS011;392;48.838;2.322;2022-12-11T01:27:30;18.00;;;14.00;;
819;SDS011;392;48.838;2.322;2022-12-11T01:29:58;16.95;;;13.50;;
819;SDS011;392;48.838;2.322;2022-12-11T01:32:27;18.23;;;14.38;;
819;SDS011;392;48.838;2.322;2022-12-11T01:34:55;15.90;;;13.07;;
819;SDS011;392;48.838;2.322;2022-12-11T01:37:23;16.42;;;13.70;;
819;SDS011;392;48.838;2.322;2022-12-11T01:39:51;16.48;;;13.75;;
819;SDS011;392;48.838;2.322;2022-12-11T01:42:19;16.50;;;13.90;;
819;SDS011;392;48.838;2.322;2022-12-11T01:48:07;16.65;;;13.75;;
819;SDS011;392;48.838;2.322;2022-12-11T01:50:38;17.02;;;14.20;;
819;SDS011;392;48.838;2.322;2022-12-11T01:53:11;17.08;;;13.32;;
819;SDS011;392;48.838;2.322;2022-12-11T01:55:45;14.30;;;11.80;;
819;SDS011;392;48.838;2.322;2022-12-11T01:58:14;14.52;;;12.15;;
819;SDS011;392;48.838;2.322;2022-12-11T02:00:44;14.23;;;11.68;;
819;SDS011;392;48.838;2.322;2022-12-11T02:03:13;13.02;;;11.63;;
819;SDS011;392;48.838;2.322;2022-12-11T02:05:40;14.48;;;11.30;;
819;SDS011;392;48.838;2.322;2022-12-11T02:08:08;13.27;;;11.55;;
819;SDS011;392;48.838;2.322;2022-12-11T02:10:47;15.90;;;12.25;;
819;SDS011;392;48.838;2.322;2022-12-11T02:13:29;14.13;;;11.38;;
819;SDS011;392;48.838;2.322;2022-12-11T02:16:05;12.95;;;11.40;;
819;SDS011;392;48.838;2.322;2022-12-11T02:18:47;14.85;;;12.43;;
819;SDS011;392;48.838;2.322;2022-12-11T02:21:25;15.20;;;12.70;;
819;SDS011;392;48.838;2.322;2022-12-11T02:24:03;17.85;;;13.90;;
819;SDS011;392;48.838;2.322;2022-12-11T02:26:55;13.10;;;11.70;;
819;SDS011;392;48.838;2.322;2022-12-11T02:29:56;15.43;;;12.80;;
819;SDS011;392;48.838;2.322;2022-12-11T02:32:29;15.27;;;12.60;;
819;SDS011;392;48.838;2.322;2022-12-11T02:35:03;12.85;;;11.45;;
819;SDS011;392;48.838;2.322;2022-12-11T02:37:37;15.50;;;12.05;;
819;SDS011;392;48.838;2.322;2022-12-11T02:40:08;13.65;;;11.35;;
819;SDS011;392;48.838;2.322;2022-12-11T02:42:39;14.23;;;11.30;;
819;SDS011;392;48.838;2.322;2022-12-11T02:45:10;12.25;;;10.23;;
819;SDS011;392;48.838;2.322;2022-12-11T02:47:38;12.70;;;10.50;;
819;SDS011;392;48.838;2.322;2022-12-11T02:50:11;12.25;;;10.43;;
819;SDS011;392;48.838;2.322;2022-12-11T02:52:43;13.70;;;11.68;;
819;SDS011;392;48.838;2.322;2022-12-11T02:55:14;12.82;;;11.30;;
819;SDS011;392;48.838;2.322;2022-12-11T02:57:43;12.70;;;10.23;;
819;SDS011;392;48.838;2.322;2022-12-11T03:00:16;12.27;;;10.90;;
819;SDS011;392;48.838;2.322;2022-12-11T03:02:45;14.45;;;11.10;;
819;SDS011;392;48.838;2.322;2022-12-11T03:05:12;12.98;;;10.52;;
819;SDS011;392;48.838;2.322;2022-12-11T03:07:42;12.65;;;11.00;;
819;SDS011;392;48.838;2.322;2022-12-11T03:10:11;12.60;;;10.80;;
819;SDS011;392;48.838;2.322;2022-12-11T03:12:43;11.95;;;10.65;;
819;SDS011;392;48.838;2.322;2022-12-11T03:15:15;12.82;;;10.60;;
819;SDS011;392;48.838;2.322;2022-12-11T03:17:50;12.55;;;10.52;;
819;SDS011;392;48.838;2.322;2022-12-11T03:20:27;13.00;;;10.48;;
819;SDS011;392;48.838;2.322;2022-12-11T03:23:06;12.80;;;10.73;;
819;SDS011;392;48.838;2.322;2022-12-11T03:25:43;11.70;;;10.45;;
819;SDS011;392;48.838;2.322;2022-12-11T03:28:18;11.15;;;10.00;;
819;SDS011;392;48.838;2.322;2022-12-11T03:30:53;11.65;;;10.10;;
819;SDS011;392;48.838;2.322;2022-12-11T03:33:23;11.90;;;10.32;;
819;SDS011;392;48.838;2.322;2022-12-11T03:35:55;11.15;;;9.57;;
819;SDS011;392;48.838;2.322;2022-12-11T03:38:31;12.50;;;10.73;;
819;SDS011;392;48.838;2.322;2022-12-11T03:41:04;11.30;;;10.00;;
819;SDS011;392;48.838;2.322;2022-12-11T03:43:34;13.13;;;11.60;;
819;SDS011;392;48.838;2.322;2022-12-11T03:46:05;13.18;;;11.10;;
819;SDS011;392;48.838;2.322;2022-12-11T03:48:35;11.40;;;9.50;;
819;SDS011;392;48.838;2.322;2022-12-11T03:51:05;10.07;;;8.80;;
819;SDS011;392;48.838;2.322;2022-12-11T03:53:34;9.38;;;8.38;;
819;SDS011;392;48.838;2.322;2022-12-11T03:56:03;9.38;;;8.45;;
819;SDS011;392;48.838;2.322;2022-12-11T03:58:34;9.40;;;8.23;;
819;SDS011;392;48.838;2.322;2022-12-11T04:01:02;10.82;;;8.95;;
819;SDS011;392;48.838;2.322;2022-12-11T04:03:30;10.07;;;9.07;;
819;SDS011;392;48.838;2.322;2022-12-11T04:05:58;11.75;;;9.80;;
819;SDS011;392;48.838;2.322;2022-12-11T04:08:25;10.10;;;9.10;;
819;SDS011;392;48.838;2.322;2022-12-11T04:10:53;10.63;;;8.88;;
819;SDS011;392;48.838;2.322;2022-12-11T04:13:34;12.10;;;10.27;;
819;SDS011;392;48.838;2.322;2022-12-11T04:16:02;11.48;;;9.60;;
819;SDS011;392;48.838;2.322;2022-12-11T04:18:30;11.40;;;9.95;;
819;SDS011;392;48.838;2.322;2022-12-11T04:21:15;12.40;;;10.90;;
819;SDS011;392;48.838;2.322;2022-12-11T04:24:01;11.43;;;10.18;;
819;SDS011;392;48.838;2.322;2022-12-11T04:26:43;11.18;;;10.02;;
819;SDS011;392;48.838;2.322;2022-12-11T04:29:12;12.85;;;11.50;;
819;SDS011;392;48.838;2.322;2022-12-11T04:31:39;10.70;;;9.60;;
819;SDS011;392;48.838;2.322;2022-12-11T04:34:08;13.82;;;10.95;;
819;SDS011;392;48.838;2.322;2022-12-11T04:36:37;12.07;;;10.30;;
819;SDS011;392;48.838;2.322;2022-12-11T04:39:04;12.02;;;10.05;;
819;SDS011;392;48.838;2.322;2022-12-11T04:41:32;11.48;;;9.77;;
819;SDS011;392;48.838;2.322;2022-12-11T04:44:01;12.15;;;10.13;;
819;SDS011;392;48.838;2.322;2022-12-11T04:46:29;11.20;;;10.00;;
819;SDS011;392;48.838;2.322;2022-12-11T04:48:57;10.70;;;9.25;;
819;SDS011;392;48.838;2.322;2022-12-11T04:51:26;12.38;;;10.73;;
819;SDS011;392;48.838;2.322;2022-12-11T04:53:55;10.45;;;9.35;;
819;SDS011;392;48.838;2.322;2022-12-11T04:56:23;11.45;;;9.73;;
819;SDS011;392;48.838;2.322;2022-12-11T04:58:51;9.90;;;8.85;;
819;SDS011;392;48.838;2.322;2022-12-11T05:01:19;9.50;;;8.50;;
819;SDS011;392;48.838;2.322;2022-12-11T05:03:48;12.13;;;10.50;;
819;SDS011;392;48.838;2.322;2022-12-11T05:06:16;12.38;;;10.25;;
819;SDS011;392;48.838;2.322;2022-12-11T05:08:45;12.35;;;10.05;;
819;SDS011;392;48.838;2.322;2022-12-11T05:11:13;13.00;;;10.40;;
819;SDS011;392;48.838;2.322;2022-12-11T05:13:41;14.57;;;11.07;;
819;SDS011;392;48.838;2.322;2022-12-11T05:16:11;12.68;;;10.75;;
819;SDS011;392;48.838;2.322;2022-12-11T05:18:43;12.15;;;10.23;;
819;SDS011;392;48.838;2.322;2022-12-11T05:21:13;12.75;;;10.32;;
819;SDS011;392;48.838;2.322;2022-12-11T05:23:41;12.90;;;10.23;;
819;SDS011;392;48.838;2.322;2022-12-11T05:26:12;10.18;;;9.13;;
819;SDS011;392;48.838;2.322;2022-12-11T05:28:42;11.70;;;9.68;;
819;SDS011;392;48.838;2.322;2022-12-11T05:31:11;10.82;;;9.15;;
819;SDS011;392;48.838;2.322;2022-12-11T05:33:41;11.18;;;9.70;;
819;SDS011;392;48.838;2.322;2022-12-11T05:36:09;11.77;;;10.13;;
819;SDS011;392;48.838;2.322;2022-12-11T05:38:42;14.25;;;11.23;;
819;SDS011;392;48.838;2.322;2022-12-11T05:41:13;13.82;;;10.93;;
819;SDS011;392;48.838;2.322;2022-12-11T05:43:43;12.13;;;10.40;;
819;SDS011;392;48.838;2.322;2022-12-11T05:46:11;12.35;;;10.48;;
819;SDS011;392;48.838;2.322;2022-12-11T05:48:41;13.60;;;10.50;;
819;SDS011;392;48.838;2.322;2022-12-11T05:51:11;12.77;;;10.00;;
819;SDS011;392;48.838;2.322;2022-12-11T05:53:40;13.68;;;10.32;;
819;SDS011;392;48.838;2.322;2022-12-11T05:56:10;15.13;;;11.55;;
819;SDS011;392;48.838;2.322;2022-12-11T05:58:40;14.65;;;11.88;;
819;SDS011;392;48.838;2.322;2022-12-11T06:01:09;14.25;;;11.80;;
819;SDS011;392;48.838;2.322;2022-12-11T06:03:40;13.35;;;11.75;;
819;SDS011;392;48.838;2.322;2022-12-11T06:06:09;16.20;;;12.40;;
819;SDS011;392;48.838;2.322;2022-12-11T06:08:36;13.73;;;11.23;;
819;SDS011;392;48.838;2.322;2022-12-11T06:11:04;14.75;;;11.98;;
819;SDS011;392;48.838;2.322;2022-12-11T06:13:33;15.63;;;12.18;;
819;SDS011;392;48.838;2.322;2022-12-11T06:16:01;14.02;;;11.55;;
819;SDS011;392;48.838;2.322;2022-12-11T06:18:34;15.25;;;12.55;;
819;SDS011;392;48.838;2.322;2022-12-11T06:21:09;16.83;;;13.63;;
819;SDS011;392;48.838;2.322;2022-12-11T06:23:39;18.02;;;12.85;;
819;SDS011;392;48.838;2.322;2022-12-11T06:26:07;16.17;;;13.50;;
819;SDS011;392;48.838;2.322;2022-12-11T06:28:36;17.73;;;13.65;;
819;SDS011;392;48.838;2.322;2022-12-11T06:31:05;18.25;;;13.73;;
819;SDS011;392;48.838;2.322;2022-12-11T06:33:33;18.27;;;14.02;;
819;SDS011;392;48.838;2.322;2022-12-11T06:36:01;19.70;;;14.95;;
819;SDS011;392;48.838;2.322;2022-12-11T06:38:29;17.17;;;14.52;;
819;SDS011;392;48.838;2.322;2022-12-11T06:40:57;21.70;;;15.70;;
819;SDS011;392;48.838;2.322;2022-12-11T06:43:27;20.55;;;16.45;;
819;SDS011;392;48.838;2.322;2022-12-11T06:45:55;23.98;;;18.08;;
819;SDS011;392;48.838;2.322;2022-12-11T06:48:24;22.80;;;16.73;;
819;SDS011;392;48.838;2.322;2022-12-11T06:50:51;22.25;;;17.35;;
819;SDS011;392;48.838;2.322;2022-12-11T06:53:19;23.67;;;18.45;;
819;SDS011;392;48.838;2.322;2022-12-11T06:55:46;25.00;;;18.27;;
819;SDS011;392;48.838;2.322;2022-12-11T06:58:14;23.38;;;17.45;;
819;SDS011;392;48.838;2.322;2022-12-11T07:00:42;22.70;;;16.63;;
819;SDS011;392;48.838;2.322;2022-12-11T07:03:11;26.52;;;18.10;;
819;SDS011;392;48.838;2.322;2022-12-11T07:05:38;22.27;;;17.33;;
819;SDS011;392;48.838;2.322;2022-12-11T07:08:06;23.58;;;17.58;;
819;SDS011;392;48.838;2.322;2022-12-11T07:10:33;27.00;;;19.08;;
819;SDS011;392;48.838;2.322;2022-12-11T07:13:02;23.58;;;17.70;;
819;SDS011;392;48.838;2.322;2022-12-11T07:15:30;24.95;;;18.42;;
819;SDS011;392;48.838;2.322;2022-12-11T07:17:58;24.38;;;18.27;;
819;SDS011;392;48.838;2.322;2022-12-11T07:20:27;24.85;;;18.85;;
819;SDS011;392;48.838;2.322;2022-12-11T07:22:54;28.38;;;20.25;;
819;SDS011;392;48.838;2.322;2022-12-11T07:25:22;25.55;;;18.70;;
819;SDS011;392;48.838;2.322;2022-12-11T07:27:49;26.08;;;19.75;;
819;SDS011;392;48.838;2.322;2022-12-11T07:30:16;26.02;;;19.75;;
819;SDS011;392;48.838;2.322;2022-12-11T07:32:44;24.30;;;19.35;;
819;SDS011;392;48.838;2.322;2022-12-11T07:35:13;25.38;;;19.27;;
819;SDS011;392;48.838;2.322;2022-12-11T07:37:43;29.13;;;21.10;;
819;SDS011;392;48.838;2.322;2022-12-11T07:40:10;25.05;;;19.17;;
819;SDS011;392;48.838;2.322;2022-12-11T07:42:38;28.58;;;21.10;;
819;SDS011;392;48.838;2.322;2022-12-11T07:45:06;26.23;;;20.10;;
819;SDS011;392;48.838;2.322;2022-12-11T07:47:34;27.35;;;20.63;;
819;SDS011;392;48.838;2.322;2022-12-11T07:50:02;27.08;;;21.30;;
819;SDS011;392;48.838;2.322;2022-12-11T07:52:31;24.55;;;20.08;;
819;SDS011;392;48.838;2.322;2022-12-11T07:55:00;27.38;;;20.50;;
819;SDS011;392;48.838;2.322;2022-12-11T07:57:28;25.60;;;19.15;;
819;SDS011;392;48.838;2.322;2022-12-11T07:59:55;24.63;;;19.20;;
819;SDS011;392;48.838;2.322;2022-12-11T08:02:23;27.75;;;20.98;;
819;SDS011;392;48.838;2.322;2022-12-11T08:04:50;24.75;;;20.17;;
819;SDS011;392;48.838;2.322;2022-12-11T08:07:18;25.23;;;20.00;;
819;SDS011;392;48.838;2.322;2022-12-11T08:09:46;27.25;;;21.25;;
819;SDS011;392;48.838;2.322;2022-12-11T08:12:15;24.08;;;19.67;;
819;SDS011;392;48.838;2.322;2022-12-11T08:14:43;27.05;;;21.02;;
819;SDS011;392;48.838;2.322;2022-12-11T08:17:10;24.70;;;20.05;;
819;SDS011;392;48.838;2.322;2022-12-11T08:19:38;24.67;;;19.20;;
819;SDS011;392;48.838;2.322;2022-12-11T08:22:06;24.48;;;19.40;;
819;SDS011;392;48.838;2.322;2022-12-11T08:24:33;25.60;;;20.50;;
819;SDS011;392;48.838;2.322;2022-12-11T08:27:01;26.30;;;20.00;;
819;SDS011;392;48.838;2.322;2022-12-11T08:29:30;26.42;;;21.10;;
819;SDS011;392;48.838;2.322;2022-12-11T08:31:58;23.98;;;19.02;;
819;SDS011;392;48.838;2.322;2022-12-11T08:34:25;23.75;;;19.35;;
819;SDS011;392;48.838;2.322;2022-12-11T08:36:53;23.48;;;18.40;;
819;SDS011;392;48.838;2.322;2022-12-11T08:39:20;25.15;;;19.42;;
819;SDS011;392;48.838;2.322;2022-12-11T08:41:47;26.08;;;20.10;;
819;SDS011;392;48.838;2.322;2022-12-11T08:44:15;24.60;;;19.17;;
819;SDS011;392;48.838;2.322;2022-12-11T08:46:44;22.92;;;19.25;;
819;SDS011;392;48.838;2.322;2022-12-11T08:49:12;21.17;;;18.52;;
819;SDS011;392;48.838;2.322;2022-12-11T08:51:39;23.27;;;18.15;;
819;SDS011;392;48.838;2.322;2022-12-11T08:54:08;22.35;;;18.52;;
819;SDS011;392;48.838;2.322;2022-12-11T08:56:36;24.02;;;19.75;;
819;SDS011;392;48.838;2.322;2022-12-11T08:59:04;23.63;;;19.70;;
819;SDS011;392;48.838;2.322;2022-12-11T09:01:31;21.30;;;18.83;;
819;SDS011;392;48.838;2.322;2022-12-11T09:04:00;20.25;;;17.98;;
819;SDS011;392;48.838;2.322;2022-12-11T09:06:31;22.25;;;18.30;;
819;SDS011;392;48.838;2.322;2022-12-11T09:08:59;19.70;;;17.40;;
819;SDS011;392;48.838;2.322;2022-12-11T09:11:27;20.30;;;17.90;;
819;SDS011;392;48.838;2.322;2022-12-11T09:13:57;20.13;;;17.10;;
819;SDS011;392;48.838;2.322;2022-12-11T09:16:26;21.15;;;18.63;;
819;SDS011;392;48.838;2.322;2022-12-11T09:18:55;22.80;;;19.50;;
819;SDS011;392;48.838;2.322;2022-12-11T09:21:26;23.17;;;19.05;;
819;SDS011;392;48.838;2.322;2022-12-11T09:23:55;21.98;;;18.52;;
819;SDS011;392;48.838;2.322;2022-12-11T09:26:25;24.98;;;20.13;;
819;SDS011;392;48.838;2.322;2022-12-11T09:28:54;23.10;;;19.25;;
819;SDS011;392;48.838;2.322;2022-12-11T09:31:24;24.08;;;19.70;;
819;SDS011;392;48.838;2.322;2022-12-11T09:33:54;24.27;;;19.55;;
819;SDS011;392;48.838;2.322;2022-12-11T09:36:26;21.75;;;17.95;;
819;SDS011;392;48.838;2.322;2022-12-11T09:38:54;21.25;;;17.17;;
819;SDS011;392;48.838;2.322;2022-12-11T09:41:28;19.15;;;16.02;;
819;SDS011;392;48.838;2.322;2022-12-11T09:44:06;21.60;;;17.05;;
819;SDS011;392;48.838;2.322;2022-12-11T09:46:45;20.92;;;17.40;;
819;SDS011;392;48.838;2.322;2022-12-11T09:49:17;21.13;;;17.52;;
819;SDS011;392;48.838;2.322;2022-12-11T09:51:57;21.15;;;17.30;;
819;SDS011;392;48.838;2.322;2022-12-11T09:54:29;20.02;;;16.90;;
819;SDS011;392;48.838;2.322;2022-12-11T09:57:01;20.50;;;17.17;;
819;SDS011;392;48.838;2.322;2022-12-11T09:59:34;19.17;;;16.25;;
819;SDS011;392;48.838;2.322;2022-12-11T10:02:12;19.00;;;16.92;;
819;SDS011;392;48.838;2.322;2022-12-11T10:04:49;20.23;;;17.10;;
819;SDS011;392;48.838;2.322;2022-12-11T10:07:29;21.52;;;17.70;;
819;SDS011;392;48.838;2.322;2022-12-11T10:10:02;19.88;;;17.00;;
819;SDS011;392;48.838;2.322;2022-12-11T10:12:35;19.83;;;16.80;;
819;SDS011;392;48.838;2.322;2022-12-11T10:15:16;18.27;;;15.98;;
819;SDS011;392;48.838;2.322;2022-12-11T10:17:53;20.48;;;16.25;;
819;SDS011;392;48.838;2.322;2022-12-11T10:20:23;18.27;;;15.90;;
819;SDS011;392;48.838;2.322;2022-12-11T10:22:53;17.10;;;15.30;;
819;SDS011;392;48.838;2.322;2022-12-11T10:25:23;19.05;;;16.95;;
819;SDS011;392;48.838;2.322;2022-12-11T10:27:54;22.70;;;17.55;;
819;SDS011;392;48.838;2.322;2022-12-11T10:30:23;20.17;;;16.48;;
819;SDS011;392;48.838;2.322;2022-12-11T10:32:55;17.52;;;15.63;;
819;SDS011;392;48.838;2.322;2022-12-11T10:35:30;18.63;;;15.80;;
819;SDS011;392;48.838;2.322;2022-12-11T10:38:15;19.38;;;16.73;;
819;SDS011;392;48.838;2.322;2022-12-11T10:40:49;18.70;;;16.70;;
819;SDS011;392;48.838;2.322;2022-12-11T10:43:18;20.23;;;17.00;;
819;SDS011;392;48.838;2.322;2022-12-11T10:45:49;20.58;;;17.35;;
819;SDS011;392;48.838;2.322;2022-12-11T10:48:18;19.13;;;16.52;;
819;SDS011;392;48.838;2.322;2022-12-11T10:50:54;18.85;;;16.85;;
819;SDS011;392;48.838;2.322;2022-12-11T10:53:28;21.52;;;17.92;;
819;SDS011;392;48.838;2.322;2022-12-11T10:55:57;20.13;;;17.92;;
819;SDS011;392;48.838;2.322;2022-12-11T10:58:26;19.75;;;16.77;;
819;SDS011;392;48.838;2.322;2022-12-11T11:01:05;19.10;;;17.02;;
819;SDS011;392;48.838;2.322;2022-12-11T11:03:35;19.30;;;16.20;;
819;SDS011;392;48.838;2.322;2022-12-11T11:06:13;19.83;;;16.67;;
819;SDS011;392;48.838;2.322;2022-12-11T11:08:48;19.90;;;17.33;;
819;SDS011;392;48.838;2.322;2022-12-11T11:11:22;20.50;;;17.50;;
819;SDS011;392;48.838;2.322;2022-12-11T11:14:03;19.42;;;16.67;;
819;SDS011;392;48.838;2.322;2022-12-11T11:16:34;32.72;;;19.95;;
819;SDS011;392;48.838;2.322;2022-12-11T11:19:03;22.10;;;17.95;;
819;SDS011;392;48.838;2.322;2022-12-11T11:21:31;21.15;;;17.33;;
819;SDS011;392;48.838;2.322;2022-12-11T11:24:04;20.45;;;17.65;;
819;SDS011;392;48.838;2.322;2022-12-11T11:26:32;19.85;;;17.75;;
819;SDS011;392;48.838;2.322;2022-12-11T11:29:00;20.48;;;17.77;;
819;SDS011;392;48.838;2.322;2022-12-11T11:31:30;19.40;;;17.33;;
819;SDS011;392;48.838;2.322;2022-12-11T11:34:00;20.85;;;16.65;;
819;SDS011;392;48.838;2.322;2022-12-11T11:36:32;20.50;;;17.23;;
819;SDS011;392;48.838;2.322;2022-12-11T11:39:05;21.75;;;18.90;;
819;SDS011;392;48.838;2.322;2022-12-11T11:41:45;20.50;;;18.30;;
819;SDS011;392;48.838;2.322;2022-12-11T11:44:17;19.38;;;17.23;;
819;SDS011;392;48.838;2.322;2022-12-11T11:46:52;21.40;;;18.50;;
819;SDS011;392;48.838;2.322;2022-12-11T11:49:25;21.40;;;19.00;;
819;SDS011;392;48.838;2.322;2022-12-11T11:52:00;22.30;;;19.90;;
819;SDS011;392;48.838;2.322;2022-12-11T11:54:35;22.08;;;19.65;;
819;SDS011;392;48.838;2.322;2022-12-11T11:57:10;21.65;;;19.35;;
819;SDS011;392;48.838;2.322;2022-12-11T11:59:41;20.95;;;18.65;;
819;SDS011;392;48.838;2.322;2022-12-11T12:02:12;20.85;;;18.65;;
819;SDS011;392;48.838;2.322;2022-12-11T12:04:42;18.80;;;16.80;;
819;SDS011;392;48.838;2.322;2022-12-11T12:07:15;19.50;;;17.40;;
819;SDS011;392;48.838;2.322;2022-12-11T12:09:54;21.00;;;17.50;;
819;SDS011;392;48.838;2.322;2022-12-11T12:12:31;22.88;;;18.85;;
819;SDS011;392;48.838;2.322;2022-12-11T12:15:08;20.75;;;18.40;;
819;SDS011;392;48.838;2.322;2022-12-11T12:17:50;22.52;;;19.02;;
819;SDS011;392;48.838;2.322;2022-12-11T12:20:23;19.90;;;17.80;;
819;SDS011;392;48.838;2.322;2022-12-11T12:22:56;21.50;;;18.27;;
819;SDS011;392;48.838;2.322;2022-12-11T12:25:33;21.88;;;18.63;;
819;SDS011;392;48.838;2.322;2022-12-11T12:28:13;21.05;;;18.40;;
819;SDS011;392;48.838;2.322;2022-12-11T12:30:50;19.40;;;17.30;;
819;SDS011;392;48.838;2.322;2022-12-11T12:33:30;18.08;;;16.15;;
819;SDS011;392;48.838;2.322;2022-12-11T12:36:05;19.48;;;17.38;;
819;SDS011;392;48.838;2.322;2022-12-11T12:38:42;19.20;;;17.13;;
819;SDS011;392;48.838;2.322;2022-12-11T12:41:17;19.73;;;17.70;;
819;SDS011;392;48.838;2.322;2022-12-11T12:43:59;21.55;;;17.15;;
819;SDS011;392;48.838;2.322;2022-12-11T12:46:45;21.40;;;19.02;;
819;SDS011;392;48.838;2.322;2022-12-11T12:49:20;20.20;;;18.10;;
819;SDS011;392;48.838;2.322;2022-12-11T12:51:53;21.13;;;18.45;;
819;SDS011;392;48.838;2.322;2022-12-11T12:54:21;21.58;;;18.38;;
819;SDS011;392;48.838;2.322;2022-12-11T12:56:51;21.65;;;18.55;;
819;SDS011;392;48.838;2.322;2022-12-11T12:59:22;19.70;;;17.60;;
819;SDS011;392;48.838;2.322;2022-12-11T13:01:53;21.35;;;18.58;;
819;SDS011;392;48.838;2.322;2022-12-11T13:04:38;20.23;;;17.90;;
819;SDS011;392;48.838;2.322;2022-12-11T13:07:12;19.58;;;17.42;;
819;SDS011;392;48.838;2.322;2022-12-11T13:09:42;21.15;;;17.48;;
819;SDS011;392;48.838;2.322;2022-12-11T13:12:30;19.25;;;17.25;;
819;SDS011;392;48.838;2.322;2022-12-11T13:17:58;19.77;;;17.65;;
819;SDS011;392;48.838;2.322;2022-12-11T13:20:27;20.50;;;17.70;;
819;SDS011;392;48.838;2.322;2022-12-11T13:23:07;19.25;;;17.25;;
819;SDS011;392;48.838;2.322;2022-12-11T13:25:45;23.77;;;21.38;;
819;SDS011;392;48.838;2.322;2022-12-11T13:28:26;20.20;;;18.02;;
819;SDS011;392;48.838;2.322;2022-12-11T13:31:06;18.98;;;16.98;;
819;SDS011;392;48.838;2.322;2022-12-11T13:33:54;19.33;;;17.02;;
819;SDS011;392;48.838;2.322;2022-12-11T13:36:27;19.80;;;17.33;;
819;SDS011;392;48.838;2.322;2022-12-11T13:38:59;21.95;;;18.42;;
819;SDS011;392;48.838;2.322;2022-12-11T13:41:31;21.00;;;17.95;;
819;SDS011;392;48.838;2.322;2022-12-11T13:44:05;19.90;;;17.80;;
819;SDS011;392;48.838;2.322;2022-12-11T13:46:34;20.15;;;17.88;;
819;SDS011;392;48.838;2.322;2022-12-11T13:49:04;19.55;;;17.55;;
819;SDS011;392;48.838;2.322;2022-12-11T13:51:33;18.92;;;16.58;;
819;SDS011;392;48.838;2.322;2022-12-11T13:54:10;19.77;;;16.95;;
819;SDS011;392;48.838;2.322;2022-12-11T13:56:51;19.08;;;17.10;;
819;SDS011;392;48.838;2.322;2022-12-11T13:59:32;18.30;;;16.42;;
819;SDS011;392;48.838;2.322;2022-12-11T14:02:03;21.65;;;17.85;;
819;SDS011;392;48.838;2.322;2022-12-11T14:05:44;19.45;;;17.40;;
819;SDS011;392;48.838;2.322;2022-12-11T14:08:16;20.55;;;18.02;;
819;SDS011;392;48.838;2.322;2022-12-11T14:10:50;19.55;;;17.55;;
819;SDS011;392;48.838;2.322;2022-12-11T14:13:20;20.33;;;18.17;;
819;SDS011;392;48.838;2.322;2022-12-11T14:15:51;20.13;;;18.10;;
819;SDS011;392;48.838;2.322;2022-12-11T14:18:21;22.45;;;20.00;;
819;SDS011;392;48.838;2.322;2022-12-11T14:20:54;21.55;;;19.25;;
819;SDS011;392;48.838;2.322;2022-12-11T14:23:24;21.92;;;18.80;;
819;SDS011;392;48.838;2.322;2022-12-11T14:25:55;24.05;;;20.63;;
819;SDS011;392;48.838;2.322;2022-12-11T14:28:25;24.52;;;21.83;;
819;SDS011;392;48.838;2.322;2022-12-11T14:30:56;23.92;;;21.50;;
819;SDS011;392;48.838;2.322;2022-12-11T14:33:26;21.38;;;19.08;;
819;SDS011;392;48.838;2.322;2022-12-11T14:36:00;24.80;;;19.90;;
819;SDS011;392;48.838;2.322;2022-12-11T14:38:29;21.10;;;18.80;;
819;SDS011;392;48.838;2.322;2022-12-11T14:41:02;22.15;;;19.80;;
819;SDS011;392;48.838;2.322;2022-12-11T14:43:37;22.58;;;19.73;;
819;SDS011;392;48.838;2.322;2022-12-11T14:46:13;22.65;;;20.13;;
819;SDS011;392;48.838;2.322;2022-12-11T14:48:45;22.33;;;19.92;;
819;SDS011;392;48.838;2.322;2022-12-11T14:51:19;25.00;;;19.67;;
819;SDS011;392;48.838;2.322;2022-12-11T14:53:49;22.55;;;20.15;;
819;SDS011;392;48.838;2.322;2022-12-11T14:56:19;23.17;;;19.77;;
819;SDS011;392;48.838;2.322;2022-12-11T14:58:51;21.85;;;18.63;;
819;SDS011;392;48.838;2.322;2022-12-11T15:01:21;24.10;;;20.77;;
819;SDS011;392;48.838;2.322;2022-12-11T15:04:03;22.60;;;20.20;;
819;SDS011;392;48.838;2.322;2022-12-11T15:06:34;22.27;;;19.98;;
819;SDS011;392;48.838;2.322;2022-12-11T15:09:19;21.55;;;19.25;;
819;SDS011;392;48.838;2.322;2022-12-11T15:11:52;22.17;;;19.63;;
819;SDS011;392;48.838;2.322;2022-12-11T15:14:22;23.10;;;20.13;;
819;SDS011;392;48.838;2.322;2022-12-11T15:16:51;23.60;;;20.00;;
819;SDS011;392;48.838;2.322;2022-12-11T15:19:22;24.40;;;19.42;;
819;SDS011;392;48.838;2.322;2022-12-11T15:22:01;22.95;;;20.02;;
819;SDS011;392;48.838;2.322;2022-12-11T15:24:33;21.23;;;18.92;;
819;SDS011;392;48.838;2.322;2022-12-11T15:27:03;21.60;;;19.15;;
819;SDS011;392;48.838;2.322;2022-12-11T15:29:32;24.58;;;20.90;;
819;SDS011;392;48.838;2.322;2022-12-11T15:32:12;22.15;;;19.17;;
819;SDS011;392;48.838;2.322;2022-12-11T15:34:45;23.00;;;19.35;;
819;SDS011;392;48.838;2.322;2022-12-11T15:37:19;24.48;;;21.38;;
819;SDS011;392;48.838;2.322;2022-12-11T15:39:49;25.47;;;22.77;;
819;SDS011;392;48.838;2.322;2022-12-11T15:42:20;25.70;;;22.98;;
819;SDS011;392;48.838;2.322;2022-12-11T15:44:52;26.63;;;23.80;;
819;SDS011;392;48.838;2.322;2022-12-11T15:47:21;25.35;;;22.65;;
819;SDS011;392;48.838;2.322;2022-12-11T15:49:52;24.10;;;21.60;;